createdAt,value
2022-10-26T00:01:21.991Z,1.80
2022-10-26T00:03:50.025Z,2.20
2022-10-26T00:06:20.951Z,2.50
2022-10-26T00:08:49.323Z,3.17
2022-10-26T00:11:17.576Z,2.90
2022-10-26T00:13:46.200Z,2.90
2022-10-26T00:16:16.661Z,2.53
2022-10-26T00:18:44.711Z,2.60
2022-10-26T00:21:12.625Z,2.50
2022-10-26T00:23:41.846Z,3.67
2022-10-26T00:26:10.617Z,2.87
2022-10-26T00:28:38.518Z,2.40
2022-10-26T00:31:08.336Z,2.70
2022-10-26T00:33:36.234Z,2.80
2022-10-26T00:36:04.407Z,2.83
2022-10-26T00:38:32.229Z,2.60
2022-10-26T00:41:01.302Z,2.53
2022-10-26T00:43:37.454Z,2.93
2022-10-26T00:46:09.475Z,2.73
2022-10-26T00:48:40.280Z,2.50
2022-10-26T00:51:11.614Z,2.97
2022-10-26T00:53:40.040Z,3.17
2022-10-26T00:56:09.922Z,3.40
2022-10-26T00:58:38.464Z,3.30
2022-10-26T01:01:06.214Z,3.77
2022-10-26T01:03:35.490Z,4.47
2022-10-26T01:06:05.114Z,4.00
2022-10-26T01:08:33.139Z,3.87
2022-10-26T01:11:02.363Z,4.00
2022-10-26T01:13:33.614Z,4.27
2022-10-26T01:16:13.218Z,4.17
2022-10-26T01:18:47.220Z,4.13
2022-10-26T01:21:42.562Z,4.47
2022-10-26T01:24:30.543Z,3.90
2022-10-26T01:27:19.632Z,4.50
2022-10-26T01:30:09.885Z,4.10
2022-10-26T01:32:43.629Z,4.23
2022-10-26T01:35:15.701Z,4.43
2022-10-26T01:37:49.157Z,4.40
2022-10-26T01:40:22.341Z,4.27
2022-10-26T01:42:54.065Z,4.83
2022-10-26T01:45:22.232Z,3.63
2022-10-26T01:47:52.557Z,4.30
2022-10-26T01:50:21.556Z,4.87
2022-10-26T01:52:50.848Z,4.83
2022-10-26T01:55:45.967Z,4.33
2022-10-26T01:58:29.852Z,4.13
2022-10-26T02:01:06.279Z,3.70
2022-10-26T02:03:46.283Z,3.97
2022-10-26T02:06:20.113Z,4.17
2022-10-26T02:08:59.090Z,4.03
2022-10-26T02:11:37.704Z,3.80
2022-10-26T02:14:12.929Z,4.30
2022-10-26T02:16:50.130Z,4.43
2022-10-26T02:19:31.656Z,3.47
2022-10-26T02:22:06.226Z,4.37
2022-10-26T02:24:35.706Z,4.03
2022-10-26T02:27:06.801Z,4.00
2022-10-26T02:29:35.513Z,3.90
2022-10-26T02:32:04.307Z,3.30
2022-10-26T02:34:35.045Z,3.73
2022-10-26T02:37:05.421Z,3.37
2022-10-26T02:39:35.266Z,3.93
2022-10-26T02:42:06.263Z,3.30
2022-10-26T02:44:38.521Z,3.00
2022-10-26T02:47:06.369Z,3.00
2022-10-26T02:49:35.525Z,3.50
2022-10-26T02:52:10.194Z,2.90
2022-10-26T02:54:45.892Z,2.67
2022-10-26T02:57:18.022Z,3.13
2022-10-26T02:59:48.461Z,3.07
2022-10-26T03:02:18.282Z,3.00
2022-10-26T03:04:49.830Z,3.07
2022-10-26T03:07:22.292Z,3.23
2022-10-26T03:09:50.001Z,3.47
2022-10-26T03:12:17.956Z,3.80
2022-10-26T03:14:45.658Z,4.03
2022-10-26T03:17:13.349Z,3.50
2022-10-26T03:19:41.031Z,3.70
2022-10-26T03:22:10.046Z,3.63
2022-10-26T03:24:37.714Z,3.50
2022-10-26T03:27:05.414Z,3.27
2022-10-26T03:29:33.104Z,3.10
2022-10-26T03:32:00.819Z,3.40
2022-10-26T03:34:28.477Z,3.53
2022-10-26T03:36:56.173Z,3.67
2022-10-26T03:39:25.269Z,3.17
2022-10-26T03:44:21.539Z,4.47
2022-10-26T03:46:49.231Z,4.40
2022-10-26T03:49:16.905Z,3.57
2022-10-26T03:51:44.601Z,4.07
2022-10-26T03:54:12.301Z,3.90
2022-10-26T03:56:41.372Z,3.43
2022-10-26T03:59:09.047Z,3.70
2022-10-26T04:01:36.814Z,3.50
2022-10-26T04:04:04.581Z,3.83
2022-10-26T04:06:32.370Z,3.97
2022-10-26T04:09:02.427Z,3.87
2022-10-26T04:11:30.191Z,4.80
2022-10-26T04:14:00.593Z,4.90
2022-10-26T04:16:31.178Z,4.90
2022-10-26T04:19:01.222Z,5.50
2022-10-26T04:21:28.952Z,5.80
2022-10-26T04:23:56.710Z,5.83
2022-10-26T04:26:24.394Z,6.13
2022-10-26T04:28:52.078Z,6.27
2022-10-26T04:31:21.125Z,6.60
2022-10-26T04:33:48.814Z,7.27
2022-10-26T04:36:16.556Z,5.67
2022-10-26T04:38:44.216Z,5.67
2022-10-26T04:41:11.888Z,5.17
2022-10-26T04:43:39.586Z,5.40
2022-10-26T04:46:07.441Z,5.20
2022-10-26T04:48:36.493Z,5.17
2022-10-26T04:51:04.269Z,5.37
2022-10-26T04:53:32.007Z,5.37
2022-10-26T04:56:00.409Z,4.77
2022-10-26T04:58:29.265Z,4.97
2022-10-26T05:00:57.379Z,5.53
2022-10-26T05:03:25.149Z,4.67
2022-10-26T05:05:54.194Z,5.17
2022-10-26T05:08:21.886Z,5.17
2022-10-26T05:10:50.451Z,4.83
2022-10-26T05:13:18.566Z,5.40
2022-10-26T05:15:46.278Z,5.30
2022-10-26T05:18:14.019Z,5.33
2022-10-26T05:20:41.724Z,4.73
2022-10-26T05:23:13.893Z,4.80
2022-10-26T05:25:41.607Z,3.83
2022-10-26T05:28:13.323Z,4.27
2022-10-26T05:30:41.823Z,3.80
2022-10-26T05:33:11.236Z,3.93
2022-10-26T05:35:39.849Z,4.67
2022-10-26T05:38:14.053Z,4.67
2022-10-26T05:40:48.637Z,5.73
2022-10-26T05:43:16.385Z,4.97
2022-10-26T05:45:44.118Z,5.37
2022-10-26T05:48:12.051Z,5.13
2022-10-26T05:50:39.923Z,5.17
2022-10-26T05:53:07.702Z,5.70
2022-10-26T05:55:37.861Z,5.73
2022-10-26T05:58:10.379Z,5.77
2022-10-26T06:00:44.515Z,6.03
2022-10-26T06:03:23.085Z,5.63
2022-10-26T06:05:54.384Z,5.40
2022-10-26T06:08:23.750Z,5.33
2022-10-26T06:10:54.499Z,5.10
2022-10-26T06:13:23.082Z,5.20
2022-10-26T06:16:02.865Z,5.00
2022-10-26T06:18:40.594Z,4.93
2022-10-26T06:21:22.928Z,4.77
2022-10-26T06:23:56.187Z,4.50
2022-10-26T06:26:37.305Z,4.80
2022-10-26T06:29:18.003Z,4.93
2022-10-26T06:31:46.605Z,5.60
2022-10-26T06:34:21.340Z,5.57
2022-10-26T06:36:51.460Z,5.23
2022-10-26T06:39:20.735Z,5.30
2022-10-26T06:41:51.263Z,5.23
2022-10-26T06:44:23.501Z,5.30
2022-10-26T06:46:58.762Z,5.33
2022-10-26T06:49:32.239Z,4.90
2022-10-26T06:52:02.541Z,5.37
2022-10-26T06:54:46.293Z,5.30
2022-10-26T06:57:17.410Z,4.57
2022-10-26T06:59:49.184Z,5.67
2022-10-26T07:02:17.520Z,5.47
2022-10-26T07:04:46.044Z,6.00
2022-10-26T07:07:15.759Z,5.93
2022-10-26T07:09:43.449Z,8.63
2022-10-26T07:12:11.185Z,7.40
2022-10-26T07:14:40.209Z,8.43
2022-10-26T07:17:07.992Z,9.17
2022-10-26T07:19:35.673Z,8.50
2022-10-26T07:22:03.639Z,8.10
2022-10-26T07:24:31.623Z,8.30
2022-10-26T07:27:00.053Z,8.93
2022-10-26T07:29:28.731Z,9.67
2022-10-26T07:31:57.765Z,8.53
2022-10-26T07:34:25.449Z,7.70
2022-10-26T07:36:53.146Z,7.60
2022-10-26T07:39:20.809Z,6.53
2022-10-26T07:41:48.496Z,7.10
2022-10-26T07:44:16.163Z,6.87
2022-10-26T07:46:43.993Z,7.00
2022-10-26T07:49:15.207Z,7.20
2022-10-26T07:51:45.523Z,9.90
2022-10-26T07:54:13.203Z,8.83
2022-10-26T07:56:40.888Z,7.60
2022-10-26T07:59:08.589Z,7.20
2022-10-26T08:01:36.954Z,6.90
2022-10-26T08:04:04.805Z,8.80
2022-10-26T08:06:33.822Z,8.60
2022-10-26T08:09:01.528Z,7.67
2022-10-26T08:11:29.221Z,7.87
2022-10-26T08:13:56.954Z,7.07
2022-10-26T08:16:24.944Z,7.30
2022-10-26T08:18:52.939Z,7.50
2022-10-26T08:21:26.104Z,7.63
2022-10-26T08:24:05.589Z,8.60
2022-10-26T08:26:33.292Z,7.90
2022-10-26T08:29:00.987Z,7.33
2022-10-26T08:31:29.092Z,6.50
2022-10-26T08:33:56.778Z,7.33
2022-10-26T08:36:26.813Z,6.73
2022-10-26T08:38:54.701Z,7.40
2022-10-26T08:41:33.732Z,7.50
2022-10-26T08:44:07.628Z,7.53
2022-10-26T08:46:40.961Z,8.20
2022-10-26T08:49:19.885Z,8.00
2022-10-26T08:51:48.631Z,8.47
2022-10-26T08:54:23.707Z,7.88
2022-10-26T08:56:58.366Z,9.82
2022-10-26T08:59:32.926Z,6.00
2022-10-26T09:02:02.683Z,5.28
2022-10-26T09:04:34.085Z,4.80
2022-10-26T09:07:10.469Z,5.43
2022-10-26T09:09:48.421Z,4.13
2022-10-26T09:12:28.638Z,4.20
2022-10-26T09:15:05.929Z,3.75
2022-10-26T09:17:47.294Z,3.70
2022-10-26T09:20:38.178Z,3.65
2022-10-26T09:23:15.229Z,3.33
2022-10-26T09:25:43.837Z,3.70
2022-10-26T09:28:18.169Z,3.13
2022-10-26T09:30:46.654Z,3.47
2022-10-26T09:33:17.740Z,3.30
2022-10-26T09:35:50.332Z,3.30
2022-10-26T09:38:25.365Z,3.20
2022-10-26T09:40:59.509Z,3.00
2022-10-26T09:43:34.171Z,2.95
2022-10-26T09:46:01.851Z,3.10
2022-10-26T09:48:36.652Z,2.80
2022-10-26T09:51:04.999Z,2.90
2022-10-26T09:53:33.320Z,2.42
2022-10-26T09:56:07.931Z,2.67
2022-10-26T09:58:41.350Z,2.85
2022-10-26T10:01:22.654Z,2.85
2022-10-26T10:04:11.326Z,2.50
2022-10-26T10:06:39.059Z,2.45
2022-10-26T10:09:11.030Z,2.70
2022-10-26T10:11:40.273Z,2.95
2022-10-26T10:14:14.912Z,3.13
2022-10-26T10:16:50.309Z,2.53
2022-10-26T10:19:24.881Z,2.80
2022-10-26T10:21:55.720Z,2.88
2022-10-26T10:24:30.807Z,2.70
2022-10-26T10:27:01.049Z,2.75
2022-10-26T10:29:31.641Z,3.00
2022-10-26T10:32:01.278Z,3.00
2022-10-26T10:34:31.978Z,2.40
2022-10-26T10:37:01.067Z,2.42
2022-10-26T10:39:38.510Z,2.47
2022-10-26T10:42:15.171Z,2.92
2022-10-26T10:44:45.346Z,2.70
2022-10-26T10:47:22.278Z,2.83
2022-10-26T10:49:56.855Z,3.30
2022-10-26T10:52:27.387Z,3.00
2022-10-26T10:55:04.634Z,2.60
2022-10-26T10:57:45.903Z,2.42
2022-10-26T11:00:15.681Z,2.58
2022-10-26T11:03:16.663Z,2.70
2022-10-26T11:06:09.391Z,2.80
2022-10-26T11:08:41.933Z,2.75
2022-10-26T11:11:12.916Z,2.40
2022-10-26T11:13:48.124Z,2.90
2022-10-26T11:16:23.815Z,2.83
2022-10-26T11:18:57.069Z,2.83
2022-10-26T11:21:29.163Z,2.80
2022-10-26T11:24:11.290Z,2.42
2022-10-26T11:26:46.171Z,2.47
2022-10-26T11:29:24.849Z,2.47
2022-10-26T11:31:58.467Z,2.10
2022-10-26T11:34:32.785Z,2.17
2022-10-26T11:37:06.657Z,2.30
2022-10-26T11:39:40.647Z,2.55
2022-10-26T11:42:17.402Z,2.40
2022-10-26T11:44:53.260Z,2.45
2022-10-26T11:47:27.112Z,2.22
2022-10-26T11:50:03.429Z,2.22
2022-10-26T11:52:39.750Z,2.42
2022-10-26T11:55:11.547Z,2.45
2022-10-26T11:57:40.753Z,2.80
2022-10-26T12:00:15.165Z,2.60
2022-10-26T12:02:47.977Z,1.98
2022-10-26T12:05:22.877Z,1.88
2022-10-26T12:07:54.986Z,2.38
2022-10-26T12:10:28.747Z,2.00
2022-10-26T12:13:04.111Z,1.70
2022-10-26T12:16:01.823Z,1.88
2022-10-26T12:18:53.997Z,1.60
2022-10-26T12:21:22.049Z,1.65
2022-10-26T12:23:58.409Z,1.52
2022-10-26T12:26:52.136Z,1.55
2022-10-26T12:29:46.182Z,1.98
2022-10-26T12:32:52.723Z,2.10
2022-10-26T12:35:42.643Z,1.58
2022-10-26T12:38:46.827Z,1.90
2022-10-26T12:41:28.152Z,1.35
2022-10-26T12:44:01.304Z,1.20
2022-10-26T12:46:40.892Z,1.30
2022-10-26T12:49:59.656Z,1.10
2022-10-26T12:52:44.732Z,1.50
2022-10-26T12:55:51.001Z,1.40
2022-10-26T12:58:47.555Z,1.75
2022-10-26T13:02:00.041Z,1.63
2022-10-26T13:04:54.521Z,1.50
2022-10-26T13:07:24.608Z,1.98
2022-10-26T13:10:01.326Z,1.40
2022-10-26T13:12:36.593Z,1.80
2022-10-26T13:15:07.568Z,1.45
2022-10-26T13:17:35.987Z,1.50
2022-10-26T13:20:05.859Z,1.67
2022-10-26T13:22:34.109Z,1.20
2022-10-26T13:25:06.383Z,1.33
2022-10-26T13:27:44.918Z,1.80
2022-10-26T13:30:38.616Z,2.10
2022-10-26T13:33:12.715Z,1.80
2022-10-26T13:35:42.736Z,1.80
2022-10-26T13:38:13.207Z,1.70
2022-10-26T13:40:42.729Z,1.65
2022-10-26T13:43:20.075Z,1.98
2022-10-26T13:45:54.006Z,1.63
2022-10-26T13:48:29.020Z,1.80
2022-10-26T13:51:00.211Z,1.70
2022-10-26T13:53:42.288Z,1.60
2022-10-26T13:56:20.625Z,1.58
2022-10-26T13:58:53.169Z,1.70
2022-10-26T14:01:26.936Z,3.50
2022-10-26T14:03:54.864Z,1.73
2022-10-26T14:06:28.621Z,1.60
2022-10-26T14:08:59.537Z,1.60
2022-10-26T14:11:34.532Z,1.75
2022-10-26T14:14:03.648Z,1.77
2022-10-26T14:16:33.148Z,1.92
2022-10-26T14:19:01.210Z,2.20
2022-10-26T14:21:29.148Z,1.70
2022-10-26T14:23:58.862Z,1.90
2022-10-26T14:26:29.008Z,1.95
2022-10-26T14:28:59.859Z,2.30
2022-10-26T14:31:29.496Z,2.03
2022-10-26T14:33:58.899Z,1.85
2022-10-26T14:36:30.843Z,2.20
2022-10-26T14:39:01.899Z,1.65
2022-10-26T14:41:30.547Z,2.20
2022-10-26T14:44:01.305Z,2.40
2022-10-26T14:46:33.729Z,2.30
2022-10-26T14:49:03.027Z,2.05
2022-10-26T14:51:35.038Z,1.95
2022-10-26T14:54:04.356Z,3.13
2022-10-26T14:56:40.130Z,3.15
2022-10-26T14:59:19.508Z,3.80
2022-10-26T15:01:56.498Z,3.60
2022-10-26T15:04:30.228Z,4.32
2022-10-26T15:07:08.989Z,4.75
2022-10-26T15:09:42.832Z,5.07
2022-10-26T15:12:21.435Z,5.78
2022-10-26T15:14:51.897Z,5.03
2022-10-26T15:17:24.244Z,4.95
2022-10-26T15:19:53.703Z,4.43
2022-10-26T15:22:29.493Z,4.55
2022-10-26T15:25:02.707Z,4.53
2022-10-26T15:27:30.949Z,4.90
2022-10-26T15:30:18.265Z,4.45
2022-10-26T15:32:46.069Z,3.72
2022-10-26T15:35:30.415Z,3.40
2022-10-26T15:38:00.672Z,4.07
2022-10-26T15:40:30.542Z,3.55
2022-10-26T15:43:01.618Z,3.30
2022-10-26T15:45:33.238Z,3.28
2022-10-26T15:48:17.660Z,3.35
2022-10-26T15:50:46.505Z,3.22
2022-10-26T15:53:19.842Z,2.97
2022-10-26T15:55:48.133Z,3.13
2022-10-26T15:58:16.778Z,3.33
2022-10-26T16:00:46.119Z,2.90
2022-10-26T16:03:16.877Z,3.13
2022-10-26T16:05:44.732Z,2.92
2022-10-26T16:08:17.876Z,2.75
2022-10-26T16:10:46.870Z,3.28
2022-10-26T16:13:15.465Z,2.92
2022-10-26T16:15:45.235Z,3.47
2022-10-26T16:18:12.950Z,3.30
2022-10-26T16:20:41.364Z,3.08
2022-10-26T16:23:09.145Z,3.17
2022-10-26T16:25:42.754Z,3.42
2022-10-26T16:28:13.727Z,3.03
2022-10-26T16:30:41.883Z,3.72
2022-10-26T16:33:10.980Z,3.10
2022-10-26T16:35:38.763Z,2.90
2022-10-26T16:38:06.520Z,2.97
2022-10-26T16:40:34.211Z,3.50
2022-10-26T16:43:01.906Z,2.90
2022-10-26T16:45:29.642Z,3.67
2022-10-26T16:47:57.987Z,3.60
2022-10-26T16:50:27.073Z,3.10
2022-10-26T16:52:54.811Z,3.20
2022-10-26T16:55:24.548Z,3.40
2022-10-26T16:57:52.625Z,2.83
2022-10-26T17:00:20.645Z,3.10
2022-10-26T17:02:48.389Z,2.92
2022-10-26T17:05:16.299Z,3.60
2022-10-26T17:07:47.278Z,3.60
2022-10-26T17:10:15.155Z,4.45
2022-10-26T17:12:42.891Z,4.50
2022-10-26T17:15:12.919Z,4.38
2022-10-26T17:17:42.520Z,4.55
2022-10-26T17:20:11.543Z,4.78
2022-10-26T17:22:39.369Z,4.57
2022-10-26T17:25:09.051Z,4.32
2022-10-26T17:27:36.757Z,3.80
2022-10-26T17:30:04.919Z,3.67
2022-10-26T17:32:32.619Z,4.15
2022-10-26T17:35:01.795Z,4.70
2022-10-26T17:40:02.241Z,5.07
2022-10-26T17:42:31.365Z,3.75
2022-10-26T17:44:59.055Z,4.00
2022-10-26T17:47:26.753Z,3.90
2022-10-26T17:49:54.569Z,4.20
2022-10-26T17:52:24.626Z,4.30
2022-10-26T17:54:52.411Z,5.30
2022-10-26T17:57:20.113Z,5.05
2022-10-26T17:59:49.825Z,6.03
2022-10-26T18:02:17.686Z,5.40
2022-10-26T18:04:45.823Z,5.95
2022-10-26T18:07:13.736Z,6.50
2022-10-26T18:09:41.438Z,6.35
2022-10-26T18:12:10.749Z,6.95
2022-10-26T18:14:38.534Z,5.97
2022-10-26T18:17:07.862Z,6.30
2022-10-26T18:19:35.682Z,7.47
2022-10-26T18:22:03.384Z,7.05
2022-10-26T18:24:31.146Z,9.77
2022-10-26T18:26:59.165Z,6.75
2022-10-26T18:29:26.922Z,6.18
2022-10-26T18:31:54.687Z,6.60
2022-10-26T18:34:24.088Z,6.47
2022-10-26T18:36:51.836Z,6.05
2022-10-26T18:39:19.551Z,5.95
2022-10-26T18:41:47.308Z,4.90
2022-10-26T18:44:15.041Z,5.32
2022-10-26T18:46:45.464Z,4.30
2022-10-26T18:49:13.995Z,5.03
2022-10-26T18:51:43.050Z,4.95
2022-10-26T18:54:11.203Z,4.63
2022-10-26T18:56:39.322Z,5.10
2022-10-26T18:59:08.003Z,5.03
2022-10-26T19:01:39.470Z,4.82
2022-10-26T19:04:09.160Z,5.60
2022-10-26T19:06:38.593Z,5.72
2022-10-26T19:09:10.034Z,6.22
2022-10-26T19:11:38.703Z,5.32
2022-10-26T19:14:08.035Z,5.35
2022-10-26T19:16:51.870Z,5.38
2022-10-26T19:19:20.805Z,4.88
2022-10-26T19:21:50.616Z,5.18
2022-10-26T19:24:21.373Z,5.18
2022-10-26T19:26:50.762Z,5.07
2022-10-26T19:29:19.756Z,5.32
2022-10-26T19:31:48.863Z,5.18
2022-10-26T19:34:17.524Z,5.97
2022-10-26T19:36:46.898Z,5.68
2022-10-26T19:39:15.875Z,5.60
2022-10-26T19:41:45.993Z,5.60
2022-10-26T19:44:15.237Z,6.25
2022-10-26T19:46:44.124Z,7.15
2022-10-26T19:49:13.439Z,6.30
2022-10-26T19:51:41.264Z,5.78
2022-10-26T19:54:09.089Z,5.65
2022-10-26T19:56:38.115Z,6.22
2022-10-26T19:59:08.101Z,4.72
2022-10-26T20:01:35.953Z,5.13
2022-10-26T20:04:04.170Z,4.88
2022-10-26T20:06:31.901Z,4.25
2022-10-26T20:09:00.295Z,4.22
2022-10-26T20:11:28.179Z,4.80
2022-10-26T20:13:56.442Z,4.53
2022-10-26T20:16:25.947Z,4.72
2022-10-26T20:18:53.697Z,5.10
2022-10-26T20:21:21.630Z,4.90
2022-10-26T20:23:49.317Z,5.57
2022-10-26T20:26:19.342Z,4.43
2022-10-26T20:28:48.792Z,5.13
2022-10-26T20:31:16.625Z,4.68
2022-10-26T20:33:45.704Z,12.40
2022-10-26T20:36:13.428Z,13.38
2022-10-26T20:38:41.645Z,6.20
2022-10-26T20:41:11.999Z,4.83
2022-10-26T20:43:41.328Z,5.35
2022-10-26T20:46:11.673Z,5.10
2022-10-26T20:48:39.959Z,5.03
2022-10-26T20:51:16.687Z,5.37
2022-10-26T20:53:52.025Z,5.70
2022-10-26T20:56:24.097Z,5.90
2022-10-26T20:58:54.505Z,6.10
2022-10-26T21:01:25.525Z,5.60
2022-10-26T21:03:53.938Z,5.60
2022-10-26T21:06:23.517Z,5.63
2022-10-26T21:08:52.291Z,5.38
2022-10-26T21:11:21.094Z,5.60
2022-10-26T21:13:50.478Z,5.00
2022-10-26T21:16:18.562Z,5.10
2022-10-26T21:18:46.474Z,5.23
2022-10-26T21:21:14.146Z,4.70
2022-10-26T21:23:43.188Z,5.17
2022-10-26T21:26:11.159Z,4.65
2022-10-26T21:28:41.849Z,4.83
2022-10-26T21:31:11.648Z,5.40
2022-10-26T21:33:39.688Z,5.13
2022-10-26T21:36:11.488Z,5.93
2022-10-26T21:38:39.958Z,5.28
2022-10-26T21:41:10.900Z,5.10
2022-10-26T21:43:40.227Z,4.97
2022-10-26T21:46:09.433Z,4.50
2022-10-26T21:48:37.580Z,4.20
2022-10-26T21:51:12.058Z,4.60
2022-10-26T21:53:40.012Z,4.30
2022-10-26T21:56:16.825Z,4.37
2022-10-26T21:58:44.872Z,4.10
2022-10-26T22:01:14.945Z,4.50
2022-10-26T22:03:43.458Z,4.07
2022-10-26T22:06:12.588Z,3.70
2022-10-26T22:08:40.349Z,4.27
2022-10-26T22:11:15.132Z,3.53
2022-10-26T22:13:43.642Z,3.80
2022-10-26T22:16:13.451Z,4.47
2022-10-26T22:18:43.039Z,4.63
2022-10-26T22:21:11.649Z,5.00
2022-10-26T22:23:41.362Z,4.80
2022-10-26T22:26:12.931Z,4.90
2022-10-26T22:28:42.923Z,5.20
2022-10-26T22:31:13.226Z,4.30
2022-10-26T22:33:41.238Z,4.87
2022-10-26T22:36:11.107Z,4.87
2022-10-26T22:38:39.131Z,5.07
2022-10-26T22:41:07.669Z,5.57
2022-10-26T22:43:36.992Z,5.20
2022-10-26T22:46:07.321Z,5.57
2022-10-26T22:48:35.569Z,6.23
2022-10-26T22:51:06.044Z,6.13
2022-10-26T22:53:33.751Z,5.13
2022-10-26T22:56:01.973Z,5.40
2022-10-26T22:58:29.813Z,4.97
2022-10-26T23:01:04.578Z,5.10
2022-10-26T23:03:32.446Z,4.93
2022-10-26T23:06:00.220Z,5.30
2022-10-26T23:08:28.329Z,5.60
2022-10-26T23:10:59.812Z,4.50
2022-10-26T23:13:28.076Z,4.40
2022-10-26T23:15:56.476Z,4.63
2022-10-26T23:18:25.541Z,4.50
2022-10-26T23:20:53.385Z,4.40
2022-10-26T23:23:21.131Z,4.67
2022-10-26T23:25:48.833Z,4.10
2022-10-26T23:28:16.575Z,4.07
2022-10-26T23:30:45.988Z,4.30
2022-10-26T23:33:13.812Z,4.47
2022-10-26T23:35:43.348Z,4.73
2022-10-26T23:38:11.111Z,4.00
2022-10-26T23:40:38.830Z,4.47
2022-10-26T23:43:06.550Z,4.63
2022-10-26T23:45:34.229Z,5.00
2022-10-26T23:48:01.955Z,5.30
2022-10-26T23:50:29.637Z,4.80
2022-10-26T23:52:58.681Z,5.40
2022-10-26T23:55:26.355Z,4.57
2022-10-26T23:57:54.049Z,4.43
